Time;durP1;ratioP1;P1;durP2;ratioP2;P2;SDS_P1;SDS_P2;PMS_P1;PMS_P2;Temp;Humidity;BMP_temperature;BMP_pressure;BME280_temperature;BME280_humidity;BME280_pressure;Samples;Min_cycle;Max_cycle;Signal;HPM_P1;HPM_P2
2023/02/01 00:02:09;;;;;;;16.23;5.90;;;15.20;59.40;;;;;;4990930;28;20473;-78
2023/02/01 00:04:37;;;;;;;19.93;6.50;;;15.20;59.50;;;;;;4989925;28;20462;-79
2023/02/01 00:07:05;;;;;;;16.50;6.43;;;15.30;59.50;;;;;;4990922;28;20457;-78
2023/02/01 00:09:33;;;;;;;12.40;5.37;;;15.30;59.50;;;;;;4989260;28;20469;-81
2023/02/01 00:12:02;;;;;;;15.47;5.40;;;15.30;59.40;;;;;;4993293;28;20473;-80
2023/02/01 00:14:38;;;;;;;15.53;6.13;;;15.30;59.40;;;;;;4990292;28;20461;-80
2023/02/01 00:17:06;;;;;;;13.83;5.47;;;15.30;59.50;;;;;;4987887;28;20548;-79
2023/02/01 00:19:35;;;;;;;14.97;5.87;;;15.30;59.50;;;;;;4992755;28;20454;-80
2023/02/01 00:22:02;;;;;;;14.70;5.43;;;15.30;59.50;;;;;;4992817;28;20469;-80
2023/02/01 00:24:31;;;;;;;18.03;5.50;;;15.30;59.40;;;;;;4993258;28;20458;-79
2023/02/01 00:26:59;;;;;;;19.50;5.47;;;15.30;59.50;;;;;;4992913;28;20481;-79
2023/02/01 00:29:26;;;;;;;13.50;6.13;;;15.30;59.40;;;;;;4990428;28;20464;-80
2023/02/01 00:31:56;;;;;;;21.43;6.03;;;15.30;59.40;;;;;;4992244;28;20470;-78
2023/02/01 00:34:24;;;;;;;14.53;5.20;;;15.30;59.50;;;;;;4992718;28;20449;-79
2023/02/01 00:36:52;;;;;;;16.17;5.63;;;15.30;59.50;;;;;;4991766;28;20468;-80
2023/02/01 00:39:20;;;;;;;14.10;5.37;;;15.30;59.40;;;;;;4992724;28;20462;-80
2023/02/01 00:41:48;;;;;;;20.50;5.83;;;15.30;59.40;;;;;;4987170;28;20492;-79
2023/02/01 00:44:16;;;;;;;15.10;5.37;;;15.30;59.50;;;;;;4988230;28;20453;-78
2023/02/01 00:46:44;;;;;;;23.23;6.50;;;15.30;59.60;;;;;;4990914;28;20461;-80
2023/02/01 00:49:13;;;;;;;18.37;6.23;;;15.30;59.40;;;;;;4994301;28;20487;-78
2023/02/01 00:51:41;;;;;;;14.13;5.50;;;15.30;59.40;;;;;;4994439;28;20458;-79
2023/02/01 00:54:08;;;;;;;14.53;5.67;;;15.30;59.50;;;;;;4999295;28;20449;-80
2023/02/01 00:56:36;;;;;;;18.20;6.07;;;15.30;59.40;;;;;;4991041;28;20473;-80
2023/02/01 00:59:04;;;;;;;23.77;7.40;;;15.30;59.40;;;;;;4989112;28;20460;-80
2023/02/01 01:01:32;;;;;;;20.30;7.77;;;15.30;59.50;;;;;;4990722;28;20473;-81
2023/02/01 01:04:00;;;;;;;17.13;6.60;;;15.30;59.50;;;;;;4993123;28;20469;-80
2023/02/01 01:06:31;;;;;;;19.33;6.70;;;15.30;59.60;;;;;;4990391;28;20925;-79
2023/02/01 01:09:00;;;;;;;20.77;7.60;;;15.30;59.50;;;;;;4994319;28;21028;-81
2023/02/01 01:11:28;;;;;;;14.43;6.30;;;15.30;59.40;;;;;;4992496;28;20476;-79
2023/02/01 01:13:57;;;;;;;15.57;6.50;;;15.30;59.70;;;;;;4996203;28;20445;-80
2023/02/01 01:16:26;;;;;;;15.93;6.60;;;15.30;59.60;;;;;;4989138;28;20457;-81
2023/02/01 01:18:54;;;;;;;17.53;7.43;;;15.30;59.50;;;;;;4993562;28;20547;-80
2023/02/01 01:21:22;;;;;;;15.00;6.67;;;15.30;59.60;;;;;;4991345;28;20484;-79
2023/02/01 01:23:51;;;;;;;16.93;6.63;;;15.30;59.60;;;;;;4990521;28;20476;-80
2023/02/01 01:26:21;;;;;;;18.90;6.47;;;15.30;59.60;;;;;;4994396;28;20479;-78
2023/02/01 01:28:49;;;;;;;18.07;7.40;;;15.30;59.70;;;;;;4990947;28;20450;-80
2023/02/01 01:31:17;;;;;;;18.67;6.93;;;15.30;59.80;;;;;;4991909;28;20473;-80
2023/02/01 01:33:48;;;;;;;23.97;6.70;;;15.30;59.60;;;;;;4996292;28;20488;-80
2023/02/01 01:36:15;;;;;;;19.73;5.97;;;15.30;59.70;;;;;;4995741;28;20464;-80
2023/02/01 01:38:44;;;;;;;18.10;6.30;;;15.30;59.70;;;;;;4996073;28;20457;-78
2023/02/01 01:41:16;;;;;;;18.57;6.90;;;15.30;59.60;;;;;;4995451;28;20477;-79
2023/02/01 01:43:49;;;;;;;13.30;6.37;;;15.30;59.50;;;;;;4995862;28;20479;-80
2023/02/01 01:46:19;;;;;;;14.43;6.13;;;15.30;59.70;;;;;;4994988;28;20456;-79
2023/02/01 01:48:48;;;;;;;16.40;6.23;;;15.30;59.60;;;;;;4990455;28;20488;-80
2023/02/01 01:51:17;;;;;;;15.67;5.87;;;15.30;59.60;;;;;;4990888;28;20489;-78
2023/02/01 01:53:48;;;;;;;12.90;6.07;;;15.40;59.70;;;;;;4995019;28;20464;-80
2023/02/01 01:56:17;;;;;;;15.53;5.97;;;15.30;59.70;;;;;;4995043;28;20480;-77
2023/02/01 01:58:45;;;;;;;18.20;5.67;;;15.30;59.60;;;;;;4996105;28;20457;-80
2023/02/01 02:01:13;;;;;;;14.77;5.90;;;15.40;59.70;;;;;;4994954;28;20484;-79
2023/02/01 02:03:42;;;;;;;15.50;6.10;;;15.30;59.50;;;;;;4994165;28;20838;-78
2023/02/01 02:06:13;;;;;;;12.20;4.70;;;15.30;59.50;;;;;;4991958;28;20494;-80
2023/02/01 02:08:41;;;;;;;14.80;5.43;;;15.30;59.40;;;;;;4989265;28;20458;-80
2023/02/01 02:11:10;;;;;;;12.10;5.33;;;15.30;59.60;;;;;;4992074;28;20473;-78
2023/02/01 02:13:40;;;;;;;17.53;5.27;;;15.30;59.70;;;;;;4988663;28;20445;-80
2023/02/01 02:16:21;;;;;;;18.10;5.60;;;15.30;59.50;;;;;;4990693;28;20442;-80
2023/02/01 02:18:54;;;;;;;14.27;4.73;;;15.30;59.50;;;;;;4993062;28;20473;-80
2023/02/01 02:21:29;;;;;;;14.73;5.43;;;15.30;59.50;;;;;;4991744;28;20478;-79
2023/02/01 02:24:32;;;;;;;16.40;5.80;;;15.30;59.60;;;;;;4989331;28;20491;-79
2023/02/01 02:27:25;;;;;;;19.53;5.77;;;15.30;59.50;;;;;;4993855;28;20495;-80
2023/02/01 02:30:24;;;;;;;8.57;4.63;;;15.30;59.50;;;;;;4989070;28;20453;-79
2023/02/01 02:33:29;;;;;;;17.30;5.33;;;15.30;59.40;;;;;;4988877;28;20473;-80
2023/02/01 02:35:58;;;;;;;11.63;4.40;;;15.30;59.50;;;;;;4988210;28;20461;-80
2023/02/01 02:38:30;;;;;;;16.67;5.20;;;15.30;59.60;;;;;;4992947;28;20465;-79
2023/02/01 02:41:02;;;;;;;14.70;5.03;;;15.30;59.50;;;;;;4992045;28;20480;-80
2023/02/01 02:49:11;;;;;;;20.60;5.03;;;15.30;59.70;;;;;;4990836;28;20830;-82
2023/02/01 03:05:35;;;;;;;13.93;4.43;;;15.30;59.50;;;;;;4993433;28;20472;-78
2023/02/01 03:08:05;;;;;;;10.60;4.10;;;15.30;59.50;;;;;;4993847;28;20467;-78
2023/02/01 03:10:49;;;;;;;13.00;4.33;;;15.30;59.60;;;;;;4990263;28;20469;-79
2023/02/01 03:13:20;;;;;;;12.87;4.10;;;15.30;59.40;;;;;;4992281;28;20450;-78
2023/02/01 03:15:51;;;;;;;14.47;4.73;;;15.30;59.60;;;;;;4992489;28;20452;-80
2023/02/01 03:18:23;;;;;;;10.17;3.87;;;15.20;59.50;;;;;;4992764;28;20462;-78
2023/02/01 03:20:53;;;;;;;12.43;4.20;;;15.20;59.50;;;;;;4993148;28;20468;-79
2023/02/01 03:23:22;;;;;;;10.33;3.77;;;15.20;59.50;;;;;;4987933;28;20473;-78
2023/02/01 03:25:50;;;;;;;13.67;4.77;;;15.20;59.50;;;;;;4988528;28;20474;-79
2023/02/01 03:28:20;;;;;;;17.93;5.50;;;15.20;59.60;;;;;;4992966;28;20469;-78
2023/02/01 03:30:48;;;;;;;12.00;4.33;;;15.20;59.60;;;;;;4992782;28;20473;-79
2023/02/01 03:33:24;;;;;;;13.40;4.27;;;15.20;59.50;;;;;;4984559;28;20453;-79
2023/02/01 03:35:58;;;;;;;14.53;4.10;;;15.20;59.50;;;;;;4990845;28;20456;-78
2023/02/01 03:38:28;;;;;;;14.70;4.30;;;15.20;59.50;;;;;;4990547;28;20449;-79
2023/02/01 03:40:58;;;;;;;12.37;4.37;;;15.10;59.50;;;;;;4990522;28;20469;-77
2023/02/01 03:43:26;;;;;;;15.27;4.23;;;15.10;59.40;;;;;;4988571;28;20457;-78
2023/02/01 03:45:57;;;;;;;8.37;3.80;;;15.10;59.40;;;;;;4990110;28;20469;-79
2023/02/01 03:48:25;;;;;;;11.90;4.17;;;15.10;59.50;;;;;;4990342;28;20528;-79
2023/02/01 03:50:56;;;;;;;12.13;3.93;;;15.10;59.50;;;;;;4992983;28;20484;-79
2023/02/01 03:53:24;;;;;;;11.20;4.03;;;15.10;59.50;;;;;;4988124;28;20464;-78
2023/02/01 03:55:52;;;;;;;12.47;4.37;;;15.10;59.60;;;;;;4992211;28;21011;-78
2023/02/01 03:58:20;;;;;;;11.63;3.47;;;15.00;59.60;;;;;;4992774;28;20539;-78
2023/02/01 04:00:51;;;;;;;10.40;4.13;;;15.10;59.60;;;;;;4987072;28;20504;-79
2023/02/01 04:03:21;;;;;;;12.00;3.60;;;15.10;59.60;;;;;;4989873;28;20454;-78
2023/02/01 04:05:49;;;;;;;15.20;3.97;;;15.00;60.30;;;;;;4986224;28;20465;-79
2023/02/01 04:08:18;;;;;;;12.63;3.60;;;15.00;59.70;;;;;;4985571;28;20461;-80
2023/02/01 04:10:46;;;;;;;11.80;3.73;;;15.00;59.60;;;;;;4990418;28;20465;-79
2023/02/01 04:13:14;;;;;;;12.43;4.00;;;15.00;59.60;;;;;;4988665;28;20473;-79
2023/02/01 04:15:42;;;;;;;11.10;3.67;;;15.00;59.60;;;;;;4988726;28;20457;-78
2023/02/01 04:18:10;;;;;;;14.03;4.30;;;15.00;59.50;;;;;;4990834;28;20453;-79
2023/02/01 04:20:38;;;;;;;11.60;3.70;;;15.00;59.60;;;;;;4989615;28;20472;-78
2023/02/01 04:23:06;;;;;;;13.17;4.00;;;15.00;59.70;;;;;;4989119;28;20450;-79
2023/02/01 04:25:35;;;;;;;10.90;3.77;;;15.00;59.50;;;;;;4988103;28;20473;-79
2023/02/01 04:28:04;;;;;;;7.00;3.43;;;15.00;59.50;;;;;;4987691;28;20477;-79
2023/02/01 04:30:32;;;;;;;13.63;3.33;;;15.00;59.60;;;;;;4986407;28;20476;-78
2023/02/01 04:33:03;;;;;;;14.10;3.80;;;15.00;59.60;;;;;;4984272;28;20985;-79
2023/02/01 04:35:31;;;;;;;11.07;3.43;;;15.00;59.50;;;;;;4991188;28;20453;-79
2023/02/01 04:37:59;;;;;;;11.77;4.17;;;15.00;59.60;;;;;;4989124;28;20464;-79
2023/02/01 04:40:27;;;;;;;11.23;3.43;;;15.00;59.60;;;;;;4987041;28;20480;-79
2023/02/01 04:42:57;;;;;;;8.97;3.13;;;15.00;59.70;;;;;;4985453;28;20458;-79
2023/02/01 04:45:25;;;;;;;7.70;3.10;;;15.00;59.70;;;;;;4988298;28;20473;-78
2023/02/01 04:47:53;;;;;;;9.87;3.47;;;15.00;59.60;;;;;;4989314;28;20461;-80
2023/02/01 04:50:21;;;;;;;9.73;3.40;;;15.00;59.70;;;;;;4991648;28;20481;-77
2023/02/01 04:52:49;;;;;;;14.67;3.83;;;15.00;59.70;;;;;;4994150;28;21016;-78
2023/02/01 04:55:18;;;;;;;10.17;3.60;;;15.00;59.70;;;;;;4995730;28;20456;-82
2023/02/01 04:57:46;;;;;;;9.60;4.30;;;15.00;59.50;;;;;;4993581;28;20484;-79
2023/02/01 05:00:17;;;;;;;11.97;3.83;;;15.00;59.70;;;;;;4991604;28;20475;-80
2023/02/01 05:02:45;;;;;;;11.13;3.87;;;15.00;59.50;;;;;;4984384;28;20449;-80
2023/02/01 05:05:13;;;;;;;11.27;3.63;;;15.00;59.80;;;;;;4991774;28;20469;-78
2023/02/01 05:07:41;;;;;;;8.97;3.13;;;14.90;59.70;;;;;;4996023;28;20453;-79
2023/02/01 05:10:10;;;;;;;8.60;3.43;;;15.00;59.70;;;;;;4993759;28;20462;-80
2023/02/01 05:15:25;;;;;;;10.43;3.17;;;15.00;59.60;;;;;;4988752;28;20536;-80
2023/02/01 05:17:53;;;;;;;8.27;3.80;;;14.90;59.60;;;;;;4994399;28;20441;-81
2023/02/01 05:20:21;;;;;;;7.03;2.73;;;14.90;59.60;;;;;;4995009;28;20472;-77
2023/02/01 05:22:49;;;;;;;6.63;3.30;;;14.90;59.70;;;;;;4992145;28;20461;-80
2023/02/01 05:25:18;;;;;;;15.90;3.50;;;14.90;59.70;;;;;;4987438;28;20471;-81
2023/02/01 05:27:46;;;;;;;15.90;3.63;;;14.90;59.60;;;;;;4992530;28;20453;-78
2023/02/01 05:30:15;;;;;;;10.27;3.70;;;14.90;59.70;;;;;;4994793;28;20476;-79
2023/02/01 05:32:44;;;;;;;10.10;2.97;;;14.90;59.60;;;;;;4991937;28;20460;-78
2023/02/01 05:35:12;;;;;;;9.73;3.30;;;14.90;59.70;;;;;;4994917;28;20453;-80
2023/02/01 05:37:41;;;;;;;8.67;3.00;;;14.90;59.70;;;;;;4995126;28;20458;-80
2023/02/01 05:40:10;;;;;;;9.57;2.87;;;14.90;59.70;;;;;;4992646;28;20461;-79
2023/02/01 05:42:39;;;;;;;8.57;3.27;;;14.90;59.70;;;;;;4990138;28;20481;-78
2023/02/01 05:45:08;;;;;;;16.80;3.77;;;14.90;59.80;;;;;;4995350;28;20468;-81
2023/02/01 05:47:36;;;;;;;9.73;2.90;;;14.90;59.80;;;;;;4990731;28;20462;-81
2023/02/01 05:50:07;;;;;;;8.63;2.93;;;14.90;59.70;;;;;;4991338;28;20469;-81
2023/02/01 05:52:35;;;;;;;8.67;3.20;;;14.90;59.80;;;;;;4996880;28;20456;-79
2023/02/01 05:55:03;;;;;;;7.80;3.27;;;14.90;59.70;;;;;;4994150;28;20457;-81
2023/02/01 05:57:31;;;;;;;9.00;3.30;;;14.90;59.80;;;;;;4996155;28;20480;-81
2023/02/01 05:59:59;;;;;;;8.80;3.00;;;14.90;59.60;;;;;;4986326;28;20454;-79
2023/02/01 06:02:27;;;;;;;17.63;4.00;;;14.90;59.80;;;;;;4992869;28;20962;-80
2023/02/01 06:04:55;;;;;;;9.37;2.67;;;14.90;59.80;;;;;;4988373;28;20474;-78
2023/02/01 06:07:25;;;;;;;8.77;2.80;;;14.90;59.90;;;;;;4994604;28;20457;-78
2023/02/01 06:09:56;;;;;;;6.47;3.30;;;14.90;59.80;;;;;;4994514;28;20453;-79
2023/02/01 06:12:24;;;;;;;11.03;2.87;;;14.90;59.80;;;;;;4993495;28;20469;-79
2023/02/01 06:14:51;;;;;;;10.83;3.37;;;14.90;59.80;;;;;;4994697;28;20454;-79
2023/02/01 06:17:19;;;;;;;10.13;4.33;;;14.90;60.00;;;;;;4986079;28;20452;-78
2023/02/01 06:19:48;;;;;;;14.03;3.27;;;14.90;60.00;;;;;;4990545;28;20450;-79
2023/02/01 06:22:15;;;;;;;7.63;3.10;;;14.90;59.80;;;;;;4994211;28;20465;-78
2023/02/01 06:24:45;;;;;;;13.87;3.53;;;14.90;59.90;;;;;;4988204;28;20482;-79
2023/02/01 06:27:13;;;;;;;8.40;3.10;;;14.90;59.80;;;;;;4990243;28;20473;-78
2023/02/01 06:29:41;;;;;;;7.13;3.13;;;14.90;60.00;;;;;;4984180;28;20449;-79
2023/02/01 06:32:09;;;;;;;4.73;2.60;;;14.90;60.00;;;;;;4988543;28;20473;-79
2023/02/01 06:34:39;;;;;;;8.93;3.63;;;14.90;60.00;;;;;;4990157;28;20472;-79
2023/02/01 06:37:07;;;;;;;8.00;3.30;;;14.90;60.00;;;;;;4994824;28;20446;-78
2023/02/01 06:39:35;;;;;;;10.60;2.70;;;14.90;60.00;;;;;;4988435;28;20460;-79
2023/02/01 06:42:05;;;;;;;8.10;3.30;;;14.90;60.10;;;;;;4988068;28;20466;-79
2023/02/01 06:44:33;;;;;;;8.37;3.20;;;14.90;60.10;;;;;;4986504;28;20461;-78
2023/02/01 06:47:01;;;;;;;9.60;2.80;;;14.90;60.20;;;;;;4987859;28;20532;-79
2023/02/01 06:49:29;;;;;;;10.17;3.60;;;14.90;60.10;;;;;;4986598;28;20465;-79
2023/02/01 06:51:59;;;;;;;10.60;3.17;;;14.90;60.00;;;;;;4990786;28;20484;-79
2023/02/01 06:54:28;;;;;;;12.33;3.10;;;15.00;60.20;;;;;;4994963;28;20458;-79
2023/02/01 06:56:55;;;;;;;7.30;3.30;;;14.90;60.10;;;;;;4991471;28;20479;-79
2023/02/01 06:59:25;;;;;;;8.00;3.00;;;14.90;60.10;;;;;;4986955;28;20457;-80
2023/02/01 07:01:53;;;;;;;10.47;3.03;;;14.90;60.10;;;;;;4991410;28;20477;-81
2023/02/01 07:04:20;;;;;;;9.10;3.33;;;14.90;60.00;;;;;;4986638;28;20454;-79
2023/02/01 07:06:49;;;;;;;7.57;2.87;;;14.90;60.00;;;;;;4988770;28;20480;-79
2023/02/01 07:09:16;;;;;;;9.27;2.63;;;14.90;59.90;;;;;;4993384;28;20468;-78
2023/02/01 07:11:44;;;;;;;8.57;3.20;;;14.90;59.90;;;;;;4993058;28;20483;-79
2023/02/01 07:14:13;;;;;;;8.90;2.70;;;14.90;59.90;;;;;;4994613;28;20457;-80
2023/02/01 07:16:42;;;;;;;9.07;3.23;;;15.00;60.00;;;;;;4992246;28;20449;-78
2023/02/01 07:19:10;;;;;;;14.30;3.50;;;15.00;59.90;;;;;;4994587;28;20453;-79
2023/02/01 07:21:38;;;;;;;10.40;3.37;;;14.90;60.10;;;;;;4994385;28;20476;-81
2023/02/01 07:24:07;;;;;;;9.97;3.43;;;14.90;60.10;;;;;;4992804;28;20458;-79
2023/02/01 07:26:34;;;;;;;8.63;2.93;;;14.90;60.10;;;;;;4989184;28;20485;-80
2023/02/01 07:29:02;;;;;;;13.87;3.30;;;14.90;60.20;;;;;;4990476;28;20461;-80
2023/02/01 07:31:30;;;;;;;9.00;2.77;;;14.90;60.10;;;;;;4989098;28;20484;-78
2023/02/01 07:34:00;;;;;;;8.97;3.20;;;14.90;60.10;;;;;;4992202;28;20461;-77
2023/02/01 07:36:28;;;;;;;6.80;2.67;;;15.00;60.10;;;;;;4985704;28;20484;-79
2023/02/01 07:38:56;;;;;;;8.90;3.40;;;15.00;60.20;;;;;;4989258;28;20457;-79
2023/02/01 07:41:24;;;;;;;10.03;2.93;;;14.90;60.00;;;;;;4993485;28;20477;-79
2023/02/01 07:43:53;;;;;;;10.30;3.03;;;15.00;60.30;;;;;;4993916;28;20476;-79
2023/02/01 07:46:21;;;;;;;8.73;3.20;;;15.00;60.10;;;;;;4993243;28;20469;-77
2023/02/01 07:48:49;;;;;;;9.03;2.97;;;15.00;60.20;;;;;;4987253;28;20468;-80
2023/02/01 07:51:19;;;;;;;11.30;3.03;;;15.00;60.20;;;;;;4992635;28;20485;-78
2023/02/01 07:53:47;;;;;;;7.03;2.80;;;15.00;60.30;;;;;;4987534;28;20461;-78
2023/02/01 07:56:16;;;;;;;10.20;3.30;;;15.00;60.20;;;;;;4986573;28;20566;-78
2023/02/01 07:58:44;;;;;;;8.03;2.90;;;15.00;60.30;;;;;;4983129;28;20468;-79
2023/02/01 08:01:20;;;;;;;8.10;2.80;;;15.00;60.30;;;;;;4981251;28;20493;-79
2023/02/01 08:03:48;;;;;;;7.70;2.90;;;15.00;60.30;;;;;;4987431;28;20453;-79
2023/02/01 08:06:16;;;;;;;12.10;3.13;;;15.10;60.40;;;;;;4991697;28;20484;-79
2023/02/01 08:08:46;;;;;;;12.17;3.83;;;15.10;60.30;;;;;;4990863;28;20469;-78
2023/02/01 08:11:14;;;;;;;8.57;3.30;;;15.20;60.20;;;;;;4985351;28;20489;-79
2023/02/01 08:13:42;;;;;;;8.73;3.40;;;15.20;60.30;;;;;;4992689;28;20453;-79
2023/02/01 08:16:12;;;;;;;6.87;2.70;;;15.20;60.20;;;;;;4987292;28;20465;-77
2023/02/01 08:18:41;;;;;;;11.27;3.30;;;15.30;60.20;;;;;;4984349;28;20463;-79
2023/02/01 08:21:10;;;;;;;6.70;2.70;;;15.30;60.10;;;;;;4991136;28;20480;-78
2023/02/01 08:23:38;;;;;;;7.20;3.00;;;15.30;59.80;;;;;;4986966;28;20463;-78
2023/02/01 08:26:09;;;;;;;7.43;2.50;;;15.30;59.90;;;;;;4990584;28;20481;-78
2023/02/01 08:28:37;;;;;;;8.17;3.27;;;15.30;60.00;;;;;;4986655;28;20449;-78
2023/02/01 08:31:06;;;;;;;11.90;3.00;;;15.30;59.90;;;;;;4989940;28;20458;-78
2023/02/01 08:33:35;;;;;;;4.73;2.20;;;15.30;64.10;;;;;;4995050;28;20437;-79
2023/02/01 08:36:04;;;;;;;11.23;3.30;;;16.00;65.80;;;;;;4993868;28;20453;-80
2023/02/01 08:38:32;;;;;;;9.87;3.20;;;16.10;63.30;;;;;;4984639;28;20483;-81
2023/02/01 08:41:05;;;;;;;11.83;3.60;;;16.10;62.60;;;;;;4990833;28;20485;-79
2023/02/01 08:43:34;;;;;;;19.23;3.30;;;16.10;62.40;;;;;;4992717;28;20473;-78
2023/02/01 08:46:03;;;;;;;7.70;3.10;;;16.10;62.30;;;;;;4993264;28;20541;-78
2023/02/01 08:48:31;;;;;;;8.97;3.70;;;16.00;62.40;;;;;;4992665;28;20495;-78
2023/02/01 08:51:01;;;;;;;11.03;3.80;;;16.00;62.60;;;;;;4992847;28;20476;-78
2023/02/01 08:53:29;;;;;;;12.80;3.00;;;15.90;62.60;;;;;;4990286;28;20945;-81
2023/02/01 08:55:57;;;;;;;7.73;2.77;;;15.90;62.80;;;;;;4988532;28;20568;-79
2023/02/01 08:58:25;;;;;;;11.13;2.90;;;15.80;62.50;;;;;;4991849;28;20462;-76
2023/02/01 09:00:54;;;;;;;12.40;3.10;;;15.80;62.40;;;;;;4988057;28;20469;-76
2023/02/01 09:03:22;;;;;;;11.13;3.30;;;15.80;62.60;;;;;;4991837;28;20455;-76
2023/02/01 09:05:50;;;;;;;11.93;3.50;;;15.70;62.60;;;;;;4979957;28;20453;-78
2023/02/01 09:08:21;;;;;;;7.67;3.10;;;15.70;62.60;;;;;;4992151;28;20515;-77
2023/02/01 09:10:49;;;;;;;6.57;2.70;;;15.70;62.50;;;;;;4992218;28;20473;-76
2023/02/01 09:13:17;;;;;;;12.10;3.23;;;15.70;62.60;;;;;;4992675;28;20441;-79
2023/02/01 09:15:44;;;;;;;8.83;3.30;;;15.70;62.30;;;;;;4990016;28;20441;-80
2023/02/01 09:18:14;;;;;;;10.23;3.00;;;15.60;62.40;;;;;;4988334;28;20441;-77
2023/02/01 09:20:42;;;;;;;10.43;2.73;;;15.70;62.30;;;;;;4992019;28;20476;-77
2023/02/01 09:23:10;;;;;;;9.63;3.00;;;15.70;62.40;;;;;;4992160;28;20532;-76
2023/02/01 09:25:38;;;;;;;6.33;2.70;;;15.70;62.50;;;;;;4981713;28;20477;-77
2023/02/01 09:28:08;;;;;;;9.60;2.90;;;15.70;62.40;;;;;;4978555;28;20480;-76
2023/02/01 09:30:36;;;;;;;11.70;3.30;;;15.70;62.20;;;;;;4992821;28;20560;-76
2023/02/01 09:33:04;;;;;;;11.10;3.50;;;15.70;62.00;;;;;;4993391;28;20449;-76
2023/02/01 09:35:33;;;;;;;12.40;2.90;;;15.70;62.00;;;;;;4995744;28;20445;-78
2023/02/01 09:38:01;;;;;;;8.33;3.27;;;15.70;62.10;;;;;;4996672;28;20434;-79
2023/02/01 09:40:29;;;;;;;8.43;3.03;;;15.70;62.00;;;;;;4996071;28;20457;-77
2023/02/01 09:43:20;;;;;;;11.97;3.43;;;15.70;62.00;;;;;;4984160;28;20451;-78
2023/02/01 09:45:52;;;;;;;12.13;3.40;;;15.70;62.00;;;;;;4994955;28;20457;-77
2023/02/01 09:48:21;;;;;;;8.40;3.00;;;15.70;61.90;;;;;;4989048;28;20612;-78
2023/02/01 09:50:53;;;;;;;13.57;3.10;;;15.60;61.90;;;;;;4994278;28;20978;-79
2023/02/01 09:53:24;;;;;;;8.33;2.70;;;15.60;62.00;;;;;;4989303;28;20466;-79
2023/02/01 09:55:54;;;;;;;8.57;3.03;;;15.70;61.90;;;;;;4997848;28;20973;-79
2023/02/01 09:58:25;;;;;;;13.60;3.73;;;15.60;61.80;;;;;;4992694;28;20438;-78
2023/02/01 10:00:54;;;;;;;7.77;2.70;;;15.60;61.90;;;;;;4997696;28;20537;-81
2023/02/01 10:03:22;;;;;;;16.40;3.50;;;15.60;61.80;;;;;;4998504;28;20512;-79
2023/02/01 10:06:10;;;;;;;13.30;3.40;;;15.60;61.80;;;;;;4996277;28;20442;-79
2023/02/01 10:08:48;;;;;;;12.33;3.50;;;15.60;61.60;;;;;;4981523;28;20500;-78
2023/02/01 10:11:22;;;;;;;14.20;3.50;;;15.60;61.60;;;;;;4998152;28;20472;-79
2023/02/01 10:13:55;;;;;;;13.13;3.10;;;15.60;61.50;;;;;;4997699;28;20465;-79
2023/02/01 10:16:30;;;;;;;10.57;3.13;;;15.60;61.70;;;;;;4992394;28;20445;-76
2023/02/01 10:19:11;;;;;;;5.30;2.90;;;15.60;61.50;;;;;;4995347;28;20441;-77
2023/02/01 10:21:48;;;;;;;8.27;2.80;;;15.70;61.50;;;;;;4995166;28;20469;-76
2023/02/01 10:24:25;;;;;;;6.10;2.37;;;15.60;61.50;;;;;;4978172;28;20480;-77
2023/02/01 10:26:56;;;;;;;9.83;3.30;;;15.60;61.40;;;;;;4991179;28;20461;-79
2023/02/01 10:29:27;;;;;;;18.77;3.70;;;15.60;61.50;;;;;;4994450;28;20462;-76
2023/02/01 10:31:55;;;;;;;10.23;3.27;;;15.60;61.60;;;;;;4991879;28;20473;-76
2023/02/01 10:34:25;;;;;;;8.87;2.90;;;15.60;61.40;;;;;;4994846;28;20449;-77
2023/02/01 10:36:58;;;;;;;10.67;3.23;;;15.60;61.40;;;;;;4979832;28;20438;-77
2023/02/01 10:39:26;;;;;;;7.50;3.10;;;15.60;61.40;;;;;;4985225;28;20453;-78
2023/02/01 10:41:54;;;;;;;10.50;2.83;;;15.60;61.30;;;;;;4980330;28;20469;-78
2023/02/01 10:44:24;;;;;;;10.57;3.20;;;15.60;61.20;;;;;;4992745;28;20458;-75
2023/02/01 10:46:52;;;;;;;8.17;2.70;;;15.60;61.10;;;;;;4990352;28;20465;-75
2023/02/01 10:49:23;;;;;;;10.70;3.40;;;15.60;61.20;;;;;;4994118;28;20480;-75
2023/02/01 10:51:53;;;;;;;6.97;2.57;;;15.60;61.20;;;;;;4992900;28;20548;-74
2023/02/01 10:54:23;;;;;;;9.00;3.50;;;15.60;61.10;;;;;;4986882;28;20448;-74
2023/02/01 10:56:53;;;;;;;9.60;3.33;;;15.60;61.10;;;;;;4988582;28;20461;-75
2023/02/01 10:59:21;;;;;;;5.27;2.70;;;15.60;61.10;;;;;;4976558;28;20450;-74
2023/02/01 11:01:50;;;;;;;12.07;3.40;;;15.60;61.10;;;;;;4981123;28;20468;-74
2023/02/01 11:04:19;;;;;;;8.80;2.47;;;15.60;61.30;;;;;;4987553;28;20453;-74
2023/02/01 11:06:48;;;;;;;7.00;3.20;;;15.60;61.10;;;;;;4991371;28;20449;-73
2023/02/01 11:09:20;;;;;;;8.00;3.00;;;15.60;61.30;;;;;;4978477;28;20473;-75
2023/02/01 11:11:59;;;;;;;8.70;2.90;;;15.60;61.20;;;;;;4990823;28;20474;-73
2023/02/01 11:14:33;;;;;;;10.23;3.40;;;15.60;61.00;;;;;;4983934;28;20430;-74
2023/02/01 11:17:02;;;;;;;10.90;3.40;;;15.60;61.10;;;;;;4974444;28;20465;-71
2023/02/01 11:19:30;;;;;;;7.23;3.13;;;15.50;61.00;;;;;;4987132;28;20456;-74
2023/02/01 11:21:59;;;;;;;7.30;2.60;;;15.50;61.10;;;;;;4993927;28;20465;-73
2023/02/01 11:24:29;;;;;;;6.13;2.70;;;15.60;61.20;;;;;;4993573;28;20472;-74
2023/02/01 11:26:59;;;;;;;5.93;2.70;;;15.50;61.10;;;;;;4979712;28;20850;-73
2023/02/01 11:29:29;;;;;;;9.07;3.07;;;15.50;61.10;;;;;;4985911;28;20469;-74
2023/02/01 11:31:57;;;;;;;12.67;3.47;;;15.50;60.80;;;;;;4993360;28;20473;-74
2023/02/01 11:34:26;;;;;;;10.00;3.00;;;15.50;60.90;;;;;;4991955;28;20460;-75
2023/02/01 11:36:55;;;;;;;7.47;2.83;;;15.50;60.70;;;;;;4985990;28;20449;-76
2023/02/01 11:39:25;;;;;;;8.97;2.90;;;15.50;60.80;;;;;;4991064;28;20449;-74
2023/02/01 11:42:04;;;;;;;6.33;2.70;;;15.50;61.00;;;;;;4983455;28;20470;-73
2023/02/01 11:44:34;;;;;;;9.87;2.93;;;15.60;61.10;;;;;;4992764;28;20457;-73
2023/02/01 11:47:20;;;;;;;5.57;2.90;;;15.60;61.00;;;;;;4992247;28;20525;-75
2023/02/01 11:49:48;;;;;;;5.83;2.83;;;15.50;61.00;;;;;;4992868;28;20480;-74
2023/02/01 11:52:19;;;;;;;8.63;2.57;;;15.50;61.10;;;;;;4989746;28;20652;-76
2023/02/01 11:54:55;;;;;;;10.00;3.00;;;15.50;60.90;;;;;;4986303;28;20446;-76
2023/02/01 11:57:35;;;;;;;4.93;2.80;;;15.50;60.90;;;;;;4991929;28;20461;-76
2023/02/01 12:00:14;;;;;;;8.50;3.23;;;15.50;61.00;;;;;;4992068;28;20452;-75
2023/02/01 12:02:58;;;;;;;12.37;3.73;;;15.50;61.00;;;;;;4982645;28;20438;-75
2023/02/01 12:05:33;;;;;;;6.00;2.67;;;15.50;61.00;;;;;;4983058;28;20465;-77
2023/02/01 12:08:23;;;;;;;7.80;2.63;;;15.50;61.10;;;;;;4982427;28;20460;-77
2023/02/01 12:10:58;;;;;;;6.93;3.17;;;15.50;61.20;;;;;;4986117;28;20445;-77
2023/02/01 12:13:36;;;;;;;10.30;3.33;;;15.50;61.20;;;;;;4990026;28;20472;-76
2023/02/01 12:16:10;;;;;;;6.50;2.63;;;15.50;61.40;;;;;;4992426;28;20449;-75
2023/02/01 12:19:00;;;;;;;7.50;3.00;;;15.50;61.20;;;;;;4987566;28;20458;-76
2023/02/01 12:21:35;;;;;;;11.20;2.70;;;15.50;61.20;;;;;;4983280;28;20449;-78
2023/02/01 12:24:26;;;;;;;7.27;2.97;;;15.50;61.40;;;;;;4976263;28;20425;-75
2023/02/01 12:27:01;;;;;;;5.70;2.70;;;15.50;61.20;;;;;;4979014;28;20469;-74
2023/02/01 12:29:42;;;;;;;3.50;2.23;;;15.40;61.20;;;;;;4984372;28;20466;-75
2023/02/01 12:32:26;;;;;;;8.40;2.93;;;15.50;61.30;;;;;;4980476;28;20460;-75
2023/02/01 12:35:17;;;;;;;7.13;2.80;;;15.50;61.40;;;;;;4983052;28;20441;-75
2023/02/01 12:37:55;;;;;;;4.30;3.00;;;15.60;61.40;;;;;;4984774;28;20458;-76
2023/02/01 12:40:30;;;;;;;5.53;2.73;;;15.80;61.80;;;;;;4986304;28;20500;-77
2023/02/01 12:43:00;;;;;;;10.53;3.10;;;15.90;61.10;;;;;;4985622;28;20453;-77
2023/02/01 12:45:32;;;;;;;5.60;2.90;;;16.10;60.80;;;;;;4983606;28;20461;-76
2023/02/01 12:48:02;;;;;;;9.53;2.93;;;16.00;60.60;;;;;;4982081;28;20512;-77
2023/02/01 12:50:32;;;;;;;4.67;2.57;;;16.10;60.70;;;;;;4979357;28;20473;-74
2023/02/01 12:53:07;;;;;;;5.87;2.63;;;16.20;60.90;;;;;;4981934;28;20445;-76
2023/02/01 12:55:37;;;;;;;5.60;2.43;;;16.30;60.70;;;;;;4987307;28;20449;-75
2023/02/01 12:58:08;;;;;;;5.60;2.77;;;16.50;60.90;;;;;;4979339;28;20437;-76
2023/02/01 13:00:39;;;;;;;4.80;2.80;;;16.60;60.20;;;;;;4983693;28;20847;-75
2023/02/01 13:03:12;;;;;;;6.83;2.90;;;16.50;59.80;;;;;;4984487;28;20429;-74
2023/02/01 13:05:45;;;;;;;4.47;2.60;;;16.50;59.80;;;;;;4983554;28;20433;-77
2023/02/01 13:08:13;;;;;;;4.67;2.50;;;16.50;60.20;;;;;;4986161;28;20426;-74
2023/02/01 13:10:43;;;;;;;5.40;2.80;;;16.80;60.70;;;;;;4990231;28;20466;-76
2023/02/01 13:13:13;;;;;;;6.33;2.90;;;17.30;61.20;;;;;;4984614;28;20810;-74
2023/02/01 13:15:45;;;;;;;5.67;3.10;;;17.90;60.50;;;;;;4981235;28;20466;-73
2023/02/01 13:18:15;;;;;;;5.40;2.70;;;18.50;59.20;;;;;;4981383;28;20473;-74
2023/02/01 13:20:48;;;;;;;4.40;2.87;;;19.00;58.80;;;;;;4989158;28;20449;-75